Terminal Aerodrome Forecast
Issued by NWS Shreveport, LA

Home | Current Version | Previous Version | Text Only | Print | Product List | Glossary On
Versions: 1 2 3 4 5 6 7 8 9 10 11 12
305
FTUS44 KSHV 250521
TAFMLU
TAF
KMLU 250521Z 2506/2606 VRB03KT P6SM SKC WS010/19020KT
     FM251000 17003KT 6SM BR BKN015
      TEMPO 2510/2513 4SM BR OVC007
     FM251600 18010G16KT P6SM SCT025 BKN100
     FM252100 18010KT P6SM VCTS SCT040CB BKN100
     FM260000 18006KT P6SM BKN250=

USA.gov is the U.S. government's official web portal to all federal, state and local government web resources and services.